Time;durP1;ratioP1;P1;durP2;ratioP2;P2;SDS_P1;SDS_P2;PMS_P1;PMS_P2;Temp;Humidity;BMP_temperature;BMP_pressure;BME280_temperature;BME280_humidity;BME280_pressure;Samples;Min_cycle;Max_cycle;Signal;HPM_P1;HPM_P2
2021/06/13 00:11:56;;;;;;;10.50;2.25;;;15.50;90.80;;;;;;1116098;22;20253;-86
2021/06/13 00:23:43;;;;;;;13.65;2.58;;;15.50;92.20;;;;;;1366340;22;21508;-95
2021/06/13 00:35:26;;;;;;;5.88;1.85;;;15.70;92.90;;;;;;3613979;39;20020;-82
2021/06/13 00:43:26;;;;;;;6.75;2.55;;;15.60;92.80;;;;;;3603800;40;20041;-84
2021/06/13 00:45:57;;;;;;;7.50;2.20;;;15.50;93.10;;;;;;3639050;22;20963;-95
2021/06/13 00:48:31;;;;;;;9.50;2.17;;;15.30;93.60;;;;;;1206498;22;21496;-96
2021/06/13 01:17:03;;;;;;;8.73;2.03;;;14.90;96.80;;;;;;1239501;22;21536;-94
2021/06/13 01:22:38;;;;;;;7.97;2.90;;;14.70;97.60;;;;;;3634510;22;21020;-95
2021/06/13 01:31:28;;;;;;;10.80;2.58;;;14.40;98.50;;;;;;1164820;22;21448;-95
2021/06/13 01:36:40;;;;;;;11.65;2.08;;;14.30;99.10;;;;;;3613494;40;20027;-81
2021/06/13 01:44:52;;;;;;;10.68;2.85;;;14.20;99.90;;;;;;1167926;22;21340;-93
2021/06/13 01:56:20;;;;;;;9.88;2.45;;;13.90;99.90;;;;;;3613025;40;20041;-80
2021/06/13 02:01:42;;;;;;;9.02;2.88;;;13.90;99.90;;;;;;3613378;40;20021;-82
2021/06/13 02:09:38;;;;;;;6.90;2.25;;;13.90;99.90;;;;;;3621057;39;20051;-81
2021/06/13 02:15:24;;;;;;;10.10;2.78;;;13.90;99.90;;;;;;1206898;22;21389;-94
2021/06/13 02:36:04;;;;;;;11.20;2.28;;;14.00;99.90;;;;;;3611331;39;20056;-82
2021/06/13 02:44:32;;;;;;;11.77;2.60;;;14.00;99.90;;;;;;3666655;22;21045;-96
2021/06/13 02:47:25;;;;;;;7.85;2.40;;;14.20;99.90;;;;;;3630418;22;20953;-95
2021/06/13 02:49:55;;;;;;;8.88;1.95;;;14.10;99.90;;;;;;2801173;23;20044;-80
2021/06/13 02:52:54;;;;;;;8.00;2.45;;;14.10;99.90;;;;;;3907144;22;20036;-96
2021/06/13 02:58:19;;;;;;;13.77;3.00;;;14.10;99.90;;;;;;3612551;40;20043;-83
2021/06/13 03:03:33;;;;;;;10.57;2.60;;;14.10;99.90;;;;;;3602716;40;20025;-84
2021/06/13 03:06:09;;;;;;;9.57;2.53;;;14.10;99.90;;;;;;3620745;22;20878;-94
2021/06/13 03:08:39;;;;;;;7.63;2.65;;;14.10;99.90;;;;;;1537990;22;21344;31
2021/06/13 03:20:19;;;;;;;10.70;2.90;;;14.10;99.90;;;;;;1582039;22;20268;-90
2021/06/13 03:25:45;;;;;;;9.20;2.88;;;14.10;99.90;;;;;;3602693;40;20017;-86
2021/06/13 03:40:29;;;;;;;13.00;2.80;;;13.80;99.90;;;;;;3602621;40;20021;-85
2021/06/13 04:39:15;;;;;;;12.98;2.80;;;13.80;99.90;;;;;;3614007;39;20135;-81
2021/06/13 04:44:41;;;;;;;13.30;3.20;;;13.60;99.90;;;;;;3603245;40;20028;-81
2021/06/13 05:04:28;;;;;;;8.25;2.72;;;14.50;99.90;;;;;;3608608;39;20051;-80
2021/06/13 05:13:17;;;;;;;11.50;2.97;;;14.90;99.90;;;;;;3607383;39;20032;-82
2021/06/13 05:29:11;;;;;;;11.77;2.92;;;15.00;99.90;;;;;;3603106;40;20036;-81
2021/06/13 05:34:31;;;;;;;13.85;3.30;;;15.30;99.90;;;;;;1258745;22;21436;31
2021/06/13 05:52:57;;;;;;;12.82;5.07;;;15.70;99.90;;;;;;3613427;39;20024;-82
2021/06/13 06:05:27;;;;;;;11.75;3.30;;;15.90;99.90;;;;;;3612990;40;20036;-82
2021/06/13 06:33:47;;;;;;;11.65;3.17;;;16.50;98.20;;;;;;3601495;40;20033;-81
2021/06/13 06:36:41;;;;;;;9.63;3.15;;;16.60;98.20;;;;;;3659041;22;20929;-95
2021/06/13 07:02:44;;;;;;;9.45;2.50;;;17.70;94.20;;;;;;3612743;40;20028;-86
2021/06/13 07:11:05;;;;;;;8.02;2.97;;;18.00;91.20;;;;;;3592596;40;20021;-82
2021/06/13 07:16:26;;;;;;;12.30;3.10;;;17.60;93.00;;;;;;3612810;40;20020;-83
2021/06/13 07:21:38;;;;;;;10.80;3.45;;;17.10;93.60;;;;;;3592293;40;20036;-79
2021/06/13 07:35:20;;;;;;;13.82;3.47;;;16.40;95.20;;;;;;3604351;40;20032;-83
2021/06/13 07:40:34;;;;;;;9.10;2.47;;;16.60;95.40;;;;;;3604322;40;19939;-84
2021/06/13 07:45:52;;;;;;;;;;;16.90;94.80;;;;;;3614977;39;20039;-82
2021/06/13 07:48:20;;;;;;;9.32;2.50;;;16.90;95.00;;;;;;3597862;40;19996;-83
2021/06/13 07:50:49;;;;;;;11.02;3.20;;;16.80;94.90;;;;;;3597544;40;20023;-81
2021/06/13 07:53:37;;;;;;;;;;;;;;;;;;;;;
2021/06/13 07:56:07;;;;;;;14.93;3.20;;;17.20;94.40;;;;;;3597637;40;20024;-81
2021/06/13 07:58:36;;;;;;;13.43;3.35;;;17.50;93.90;;;;;;3597717;40;20024;-81
2021/06/13 08:11:39;;;;;;;7.07;2.63;;;17.80;91.10;;;;;;3603778;40;20029;-81
2021/06/13 08:38:24;;;;;;;5.93;2.17;;;18.30;82.40;;;;;;2020181;22;20165;-96
2021/06/13 08:44:13;;;;;;;11.40;2.75;;;17.90;84.60;;;;;;1296822;22;20285;-95
2021/06/13 09:28:55;;;;;;;10.48;2.45;;;20.10;73.70;;;;;;3602286;39;20040;-84
2021/06/13 09:35:10;;;;;;;12.60;2.50;;;19.80;68.80;;;;;;1996748;22;21377;-92
2021/06/13 09:38:08;;;;;;;13.40;2.55;;;19.80;71.00;;;;;;1125257;22;20183;-93
2021/06/13 09:46:29;;;;;;;6.07;1.80;;;19.70;68.30;;;;;;3602994;40;20032;-83
2021/06/13 09:51:53;;;;;;;10.95;3.10;;;19.80;69.50;;;;;;1649100;22;20159;-96
2021/06/13 09:57:33;;;;;;;9.98;2.42;;;19.40;69.70;;;;;;1225166;22;21418;31
2021/06/13 10:11:47;;;;;;;10.43;2.65;;;19.90;67.30;;;;;;3623111;39;20027;-84
2021/06/13 10:26:13;;;;;;;6.40;1.80;;;19.10;68.10;;;;;;3600499;40;20044;-86
2021/06/13 10:31:35;;;;;;;5.05;2.20;;;18.50;68.90;;;;;;1365200;22;20166;-96
2021/06/13 10:34:05;;;;;;;8.90;2.47;;;18.40;69.60;;;;;;1665380;22;20240;-90
2021/06/13 10:37:04;;;;;;;7.88;1.80;;;18.40;69.30;;;;;;1449698;23;20281;-94
2021/06/13 10:45:12;;;;;;;4.00;1.95;;;19.20;68.00;;;;;;3592732;40;20027;-84
2021/06/13 10:50:36;;;;;;;10.43;2.30;;;19.20;67.20;;;;;;3602808;40;20033;-82
2021/06/13 10:53:32;;;;;;;8.70;2.28;;;19.90;65.00;;;;;;3716070;22;21001;-94
2021/06/13 11:01:59;;;;;;;6.25;2.22;;;19.50;64.60;;;;;;3605060;39;19964;-87
2021/06/13 11:05:01;;;;;;;10.52;2.53;;;20.10;64.10;;;;;;3584990;40;20032;-87
2021/06/13 11:07:58;;;;;;;13.35;2.85;;;20.50;62.50;;;;;;3565056;40;20041;-85
2021/06/13 11:10:31;;;;;;;9.52;2.20;;;20.00;62.30;;;;;;3549585;40;20038;-87
2021/06/13 11:13:02;;;;;;;6.57;2.17;;;20.00;64.70;;;;;;3565735;40;20041;-87
2021/06/13 11:16:00;;;;;;;9.13;2.10;;;20.20;63.20;;;;;;3564066;40;20033;-88
2021/06/13 11:18:30;;;;;;;9.65;2.20;;;20.50;62.20;;;;;;3561993;40;20080;-86
2021/06/13 11:21:05;;;;;;;8.10;2.38;;;20.90;61.50;;;;;;3554015;40;20049;-86
2021/06/13 11:23:49;;;;;;;8.38;2.30;;;21.00;60.90;;;;;;3546867;40;20037;-85
2021/06/13 11:26:32;;;;;;;13.23;2.35;;;21.50;61.80;;;;;;3549273;40;20147;-85
2021/06/13 11:29:00;;;;;;;7.93;1.83;;;24.10;58.20;;;;;;3562741;40;20073;-85
2021/06/13 11:31:29;;;;;;;6.65;2.15;;;25.80;55.10;;;;;;3553830;40;20129;-85
2021/06/13 11:34:17;;;;;;;7.20;2.22;;;27.40;50.80;;;;;;3550022;40;20081;-83
2021/06/13 11:36:46;;;;;;;5.82;2.10;;;29.10;46.80;;;;;;3562412;40;20069;-84
2021/06/13 11:39:24;;;;;;;9.98;2.20;;;29.20;43.40;;;;;;3563710;40;20081;-83
2021/06/13 11:42:08;;;;;;;8.55;2.30;;;28.40;44.20;;;;;;3580048;40;20067;-83
2021/06/13 11:44:42;;;;;;;8.70;2.55;;;27.50;44.80;;;;;;3600364;40;20591;-84
2021/06/13 11:47:36;;;;;;;10.80;2.60;;;26.00;46.10;;;;;;3597904;39;20035;-85
2021/06/13 11:50:10;;;;;;;10.20;3.08;;;24.80;48.30;;;;;;3561810;40;20057;-86
2021/06/13 11:56:01;;;;;;;6.72;2.35;;;23.60;50.90;;;;;;3575452;40;20384;-84
2021/06/13 11:58:31;;;;;;;9.57;2.88;;;23.90;49.90;;;;;;3585892;40;20047;-85
2021/06/13 12:01:00;;;;;;;6.90;2.78;;;24.30;50.50;;;;;;3566407;40;20045;-85
2021/06/13 12:03:29;;;;;;;6.22;2.75;;;25.10;48.90;;;;;;3566066;40;20033;-84
2021/06/13 12:06:14;;;;;;;6.80;2.40;;;25.60;47.30;;;;;;3577213;40;20073;-87
2021/06/13 12:08:45;;;;;;;11.40;2.88;;;25.80;47.70;;;;;;3565337;40;20147;-87
2021/06/13 12:11:39;;;;;;;6.88;2.35;;;27.60;45.10;;;;;;3564479;40;20111;-85
2021/06/13 12:14:33;;;;;;;7.38;2.60;;;26.80;44.80;;;;;;3559581;40;20078;-86
2021/06/13 12:17:05;;;;;;;6.78;2.55;;;25.50;47.10;;;;;;3524413;40;20568;-86
2021/06/13 12:19:44;;;;;;;8.18;2.55;;;25.60;46.90;;;;;;3525392;40;20078;-87
2021/06/13 12:42:39;;;;;;;9.80;2.50;;;25.80;49.20;;;;;;3617414;39;20039;-84
2021/06/13 12:45:16;;;;;;;7.57;2.95;;;27.40;44.50;;;;;;3607851;39;20035;-84
2021/06/13 12:47:47;;;;;;;9.65;2.50;;;26.20;45.80;;;;;;3600023;39;20036;-85
2021/06/13 12:50:24;;;;;;;5.70;2.35;;;25.60;46.20;;;;;;3614725;39;20080;-85
2021/06/13 12:52:52;;;;;;;9.50;3.10;;;25.00;47.00;;;;;;3767629;22;21261;-92
2021/06/13 12:55:26;;;;;;;11.38;2.38;;;25.50;47.30;;;;;;1983064;22;20025;31
2021/06/13 12:58:22;;;;;;;7.10;2.42;;;27.20;46.40;;;;;;3731364;22;20052;-85
2021/06/13 13:15:12;;;;;;;9.50;2.60;;;24.00;49.10;;;;;;3631130;39;20023;-85
2021/06/13 13:23:12;;;;;;;8.00;2.63;;;28.70;43.40;;;;;;2732286;22;20358;-86
2021/06/13 13:25:45;;;;;;;7.22;2.47;;;29.70;40.90;;;;;;3346304;22;20267;-81
2021/06/13 13:46:35;;;;;;;7.32;2.90;;;24.50;48.00;;;;;;3000061;22;20028;-81
2021/06/13 13:49:12;;;;;;;10.77;2.97;;;24.30;48.50;;;;;;3692737;22;20054;-89
2021/06/13 14:06:28;;;;;;;7.18;2.58;;;26.10;45.50;;;;;;3648205;22;20040;-87
2021/06/13 14:09:01;;;;;;;10.93;2.88;;;27.90;43.40;;;;;;3626158;23;20055;-85
2021/06/13 14:14:49;;;;;;;8.68;3.30;;;27.90;42.50;;;;;;3619534;23;21014;-93
2021/06/13 14:17:17;;;;;;;10.80;2.80;;;26.90;43.70;;;;;;3590951;39;20037;-86
2021/06/13 14:19:45;;;;;;;8.52;2.83;;;27.40;44.30;;;;;;3730568;22;20806;-83
2021/06/13 14:22:22;;;;;;;9.27;2.85;;;28.30;42.70;;;;;;3677760;22;20383;-90
2021/06/13 14:24:50;;;;;;;7.40;2.47;;;27.70;42.40;;;;;;3674044;22;20036;-88
2021/06/13 14:27:18;;;;;;;11.35;2.20;;;27.10;43.70;;;;;;3745497;22;20061;-86
2021/06/13 14:29:49;;;;;;;11.38;2.78;;;28.00;43.00;;;;;;3639392;23;20032;-80
2021/06/13 14:32:20;;;;;;;9.27;2.60;;;28.90;41.50;;;;;;3614251;39;20027;-86
2021/06/13 14:34:47;;;;;;;9.95;2.38;;;29.20;41.20;;;;;;3604691;39;20032;-87
2021/06/13 14:37:18;;;;;;;9.75;2.53;;;29.50;41.60;;;;;;3605028;39;20062;-88
2021/06/13 14:39:54;;;;;;;8.07;2.63;;;29.30;40.80;;;;;;3836066;23;20064;-87
2021/06/13 14:42:22;;;;;;;7.45;2.60;;;28.80;41.30;;;;;;3635765;22;20048;-87
2021/06/13 14:44:54;;;;;;;5.40;2.30;;;28.20;41.70;;;;;;3679614;22;20060;-87
2021/06/13 14:47:26;;;;;;;10.18;2.28;;;28.30;42.10;;;;;;3773587;22;20048;-81
2021/06/13 14:49:56;;;;;;;6.60;2.67;;;28.30;42.20;;;;;;2884092;22;20178;-84
2021/06/13 14:52:25;;;;;;;6.20;2.60;;;28.70;42.40;;;;;;3591138;40;20378;-87
2021/06/13 14:54:53;;;;;;;7.63;2.30;;;29.80;40.40;;;;;;3588533;40;20036;-86
2021/06/13 14:57:21;;;;;;;8.95;3.17;;;29.80;40.40;;;;;;3593178;40;20029;-86
2021/06/13 15:02:29;;;;;;;7.22;2.50;;;28.00;40.60;;;;;;3591371;40;20032;-86
2021/06/13 15:05:22;;;;;;;10.15;2.72;;;27.70;42.30;;;;;;3758567;22;20766;-91
2021/06/13 15:11:15;;;;;;;7.68;2.60;;;28.20;42.20;;;;;;1222409;22;21517;-89
2021/06/13 15:13:44;;;;;;;11.02;2.97;;;28.70;41.40;;;;;;3006483;22;20044;-85
2021/06/13 15:16:14;;;;;;;8.45;2.58;;;28.30;41.30;;;;;;3220924;22;20266;-84
2021/06/13 15:21:31;;;;;;;10.02;3.13;;;27.00;43.00;;;;;;3600067;40;20068;-83
2021/06/13 15:23:59;;;;;;;13.60;2.45;;;27.60;43.00;;;;;;3590138;39;20504;-85
2021/06/13 15:26:59;;;;;;;13.65;2.67;;;29.30;41.10;;;;;;3643037;22;20043;-85
2021/06/13 15:29:27;;;;;;;5.65;2.08;;;31.20;39.20;;;;;;3610281;39;20056;-85
2021/06/13 15:31:57;;;;;;;5.95;2.03;;;32.60;38.20;;;;;;3603403;39;20035;-85
2021/06/13 15:34:30;;;;;;;12.02;2.53;;;32.50;37.10;;;;;;3601211;39;20389;-84
2021/06/13 15:36:58;;;;;;;10.55;2.30;;;30.90;37.70;;;;;;3601548;39;20034;-87
2021/06/13 15:39:29;;;;;;;6.38;2.67;;;29.50;38.90;;;;;;3595583;39;20481;-86
2021/06/13 15:48:05;;;;;;;11.20;2.78;;;26.00;44.40;;;;;;3661812;22;20307;-84
2021/06/13 15:53:30;;;;;;;6.80;2.55;;;26.50;44.00;;;;;;3620747;39;20050;-86
2021/06/13 15:58:53;;;;;;;5.40;2.13;;;27.20;43.20;;;;;;3621084;39;20063;-87
2021/06/13 16:04:00;;;;;;;11.02;2.65;;;29.90;39.80;;;;;;3576702;40;20060;-86
2021/06/13 16:06:43;;;;;;;5.53;2.22;;;30.50;38.40;;;;;;3622560;22;20102;-87
2021/06/13 16:09:12;;;;;;;9.07;2.65;;;30.30;39.00;;;;;;2692476;23;20094;-84
2021/06/13 16:11:40;;;;;;;7.65;2.33;;;29.90;39.00;;;;;;3602965;39;20087;-83
2021/06/13 16:14:07;;;;;;;9.68;2.65;;;29.70;39.30;;;;;;3602603;39;20067;-82
2021/06/13 16:16:35;;;;;;;10.48;2.38;;;29.50;39.80;;;;;;3607347;39;20076;-82
2021/06/13 16:19:03;;;;;;;8.23;2.33;;;29.30;40.90;;;;;;3617488;39;20068;-82
2021/06/13 16:21:32;;;;;;;8.73;2.33;;;29.80;39.40;;;;;;3614691;39;20071;-85
2021/06/13 16:24:00;;;;;;;11.80;2.60;;;30.30;39.10;;;;;;3602310;39;20119;-85
2021/06/13 16:26:30;;;;;;;5.97;2.10;;;29.30;38.80;;;;;;3608267;39;20091;-81
2021/06/13 16:28:57;;;;;;;7.78;2.30;;;28.80;40.30;;;;;;3602439;39;20405;-85
2021/06/13 16:31:25;;;;;;;6.43;2.20;;;29.30;39.80;;;;;;3605045;39;20084;-83
2021/06/13 16:33:53;;;;;;;8.07;2.45;;;28.90;40.00;;;;;;3647823;22;20082;-84
2021/06/13 16:36:21;;;;;;;8.00;2.72;;;28.10;40.60;;;;;;3619734;39;20091;-86
2021/06/13 16:38:48;;;;;;;8.48;2.70;;;26.60;41.60;;;;;;3689335;22;20124;-86
2021/06/13 16:41:16;;;;;;;8.25;2.67;;;26.00;44.00;;;;;;3614631;39;20059;-84
2021/06/13 16:43:46;;;;;;;6.70;2.30;;;26.40;43.80;;;;;;3619620;39;20275;-87
2021/06/13 16:46:14;;;;;;;7.63;2.30;;;27.80;42.30;;;;;;3617137;39;20075;-85
2021/06/13 16:48:42;;;;;;;8.80;2.45;;;28.40;40.90;;;;;;3605789;39;20062;-86
2021/06/13 16:51:12;;;;;;;8.00;2.88;;;28.10;41.50;;;;;;3724003;22;20057;-88
2021/06/13 17:05:26;;;;;;;10.13;3.58;;;25.30;46.30;;;;;;2816343;22;20024;-86
2021/06/13 17:07:54;;;;;;;9.65;3.20;;;26.40;44.90;;;;;;3620657;39;20038;-86
2021/06/13 17:13:11;;;;;;;9.85;3.03;;;26.30;44.20;;;;;;3634375;22;20069;-83
2021/06/13 17:15:39;;;;;;;8.70;3.08;;;25.70;45.90;;;;;;3573819;40;20069;-84
2021/06/13 17:18:07;;;;;;;8.15;3.10;;;25.00;46.10;;;;;;3573430;40;20069;-85
2021/06/13 17:20:37;;;;;;;8.60;3.22;;;24.30;46.90;;;;;;3574395;40;20308;-84
2021/06/13 17:23:12;;;;;;;10.63;2.65;;;23.80;47.30;;;;;;3574442;40;20140;-85
2021/06/13 17:25:43;;;;;;;7.25;2.58;;;23.30;48.90;;;;;;3576941;40;20100;-84
2021/06/13 17:28:14;;;;;;;9.15;3.00;;;22.90;49.80;;;;;;3578740;40;20076;-85
2021/06/13 17:30:45;;;;;;;13.02;2.72;;;22.70;50.40;;;;;;3587443;40;20276;-86
2021/06/13 17:33:14;;;;;;;8.60;2.35;;;22.60;50.70;;;;;;3586314;40;20096;-86
2021/06/13 17:36:22;;;;;;;7.72;3.25;;;22.60;50.70;;;;;;3575283;40;20065;-84
2021/06/13 17:38:51;;;;;;;8.75;2.65;;;22.70;50.70;;;;;;3595263;40;20061;-85
2021/06/13 17:41:37;;;;;;;12.43;3.20;;;22.70;50.60;;;;;;3574452;40;20408;-85
2021/06/13 17:44:08;;;;;;;6.65;2.33;;;22.60;50.60;;;;;;3588158;40;20400;-87
2021/06/13 17:46:37;;;;;;;6.72;2.30;;;22.40;51.40;;;;;;3590651;40;20065;-85
2021/06/13 17:51:49;;;;;;;6.75;3.03;;;22.00;52.40;;;;;;3619122;39;20071;-86
2021/06/13 17:54:22;;;;;;;9.32;2.63;;;21.70;52.70;;;;;;3604667;39;20309;-85
2021/06/13 17:56:50;;;;;;;9.30;3.25;;;21.60;52.90;;;;;;3598956;39;20147;-83
2021/06/13 17:59:19;;;;;;;9.68;3.13;;;21.40;53.70;;;;;;3600121;39;20067;-87
2021/06/13 18:01:49;;;;;;;11.18;2.88;;;21.30;54.10;;;;;;3607045;39;20059;-84
2021/06/13 18:04:22;;;;;;;11.15;2.63;;;21.20;54.40;;;;;;3588701;40;20383;-84
2021/06/13 18:06:52;;;;;;;8.68;2.70;;;21.10;55.10;;;;;;3601915;39;20060;-85
2021/06/13 18:09:22;;;;;;;11.15;3.35;;;21.00;55.80;;;;;;3600976;39;20046;-85
2021/06/13 18:11:53;;;;;;;10.05;3.08;;;21.00;55.70;;;;;;3599569;39;20043;-85
2021/06/13 18:14:24;;;;;;;9.32;2.70;;;21.00;55.80;;;;;;3592654;39;20068;-85
2021/06/13 18:16:53;;;;;;;6.22;2.47;;;21.00;55.60;;;;;;3592404;39;20125;-85
2021/06/13 18:19:21;;;;;;;;;;;21.00;55.60;;;;;;3611188;39;20099;-84
2021/06/13 18:21:51;;;;;;;6.68;2.42;;;20.90;55.70;;;;;;3603128;39;19959;-86
2021/06/13 18:24:20;;;;;;;6.78;2.67;;;20.80;55.90;;;;;;3594129;39;20107;-84
2021/06/13 18:26:54;;;;;;;9.43;3.05;;;20.60;56.30;;;;;;3600004;40;20072;-83
2021/06/13 18:29:22;;;;;;;14.48;3.25;;;20.50;56.70;;;;;;3602367;39;20076;-84
2021/06/13 18:31:51;;;;;;;10.73;2.55;;;20.40;57.00;;;;;;3598201;39;20083;-82
2021/06/13 18:34:20;;;;;;;7.53;2.83;;;20.20;57.40;;;;;;3610849;39;20071;-84
2021/06/13 18:36:52;;;;;;;9.73;3.10;;;20.10;57.80;;;;;;3589558;40;20329;-83
2021/06/13 18:39:22;;;;;;;10.80;2.78;;;20.00;58.20;;;;;;3608208;39;20072;-83
2021/06/13 18:41:50;;;;;;;9.10;3.45;;;19.90;58.20;;;;;;3595411;39;20060;-85
2021/06/13 18:44:19;;;;;;;9.32;2.95;;;19.80;58.80;;;;;;3592638;39;20072;-84
2021/06/13 18:46:48;;;;;;;5.75;2.72;;;19.70;59.00;;;;;;3596064;40;20055;-83
2021/06/13 18:49:17;;;;;;;11.77;3.38;;;19.60;59.00;;;;;;3588699;40;20072;-85
2021/06/13 18:51:45;;;;;;;10.13;2.63;;;19.60;59.10;;;;;;3594742;40;20076;-84
2021/06/13 18:54:16;;;;;;;11.35;2.90;;;19.50;59.80;;;;;;3594094;40;20075;-85
2021/06/13 18:56:46;;;;;;;8.88;2.90;;;19.30;60.30;;;;;;3605126;39;20096;-84
2021/06/13 18:59:14;;;;;;;16.88;3.08;;;19.20;60.60;;;;;;3594984;39;20087;-85
2021/06/13 19:01:42;;;;;;;12.05;3.25;;;19.10;61.00;;;;;;3587188;39;20080;-84
2021/06/13 19:04:10;;;;;;;10.45;3.67;;;19.00;61.90;;;;;;3604601;39;20064;-84
2021/06/13 19:06:40;;;;;;;10.20;3.03;;;18.90;61.80;;;;;;3604934;39;20306;-85
2021/06/13 19:09:09;;;;;;;9.57;2.83;;;18.80;62.20;;;;;;3596825;39;20325;-84
2021/06/13 19:11:40;;;;;;;12.45;3.10;;;18.70;62.60;;;;;;3595974;39;20059;-88
2021/06/13 19:14:14;;;;;;;11.10;2.60;;;18.60;63.30;;;;;;3587625;39;20119;-86
2021/06/13 19:16:42;;;;;;;10.52;2.78;;;18.50;63.40;;;;;;3605838;39;20059;-86
2021/06/13 19:19:14;;;;;;;16.88;3.20;;;18.40;63.70;;;;;;3596335;39;20084;-87
2021/06/13 19:21:42;;;;;;;17.95;3.58;;;18.40;64.20;;;;;;3598492;39;20087;-84
2021/06/13 19:24:11;;;;;;;10.73;2.90;;;18.30;64.50;;;;;;3618796;39;20039;-86
2021/06/13 19:26:40;;;;;;;12.38;2.90;;;18.20;64.90;;;;;;3591002;39;20083;-83
2021/06/13 19:29:09;;;;;;;7.20;2.60;;;18.10;65.20;;;;;;3585617;39;20069;-85
2021/06/13 19:31:38;;;;;;;10.70;3.20;;;18.10;65.60;;;;;;3594472;39;20299;-83
2021/06/13 19:34:08;;;;;;;11.73;3.72;;;18.00;65.80;;;;;;3601548;39;20087;-87
2021/06/13 19:36:40;;;;;;;8.75;3.33;;;17.90;66.30;;;;;;3593270;39;20063;-85
2021/06/13 19:39:10;;;;;;;9.07;3.25;;;17.90;66.60;;;;;;3601984;39;20089;-83
2021/06/13 19:41:40;;;;;;;15.25;3.28;;;17.80;67.00;;;;;;3590684;39;20094;-86
2021/06/13 19:44:12;;;;;;;9.13;3.78;;;17.80;67.30;;;;;;3604930;39;20095;-86
2021/06/13 19:46:42;;;;;;;9.32;2.90;;;17.80;67.60;;;;;;3595381;39;20079;-86
2021/06/13 19:49:10;;;;;;;7.45;2.67;;;17.70;67.90;;;;;;3604026;39;20080;-85
2021/06/13 19:51:46;;;;;;;;;;;17.60;68.10;;;;;;3598250;39;20063;-86
2021/06/13 19:54:17;;;;;;;13.05;3.55;;;17.60;68.40;;;;;;3607248;39;19968;-86
2021/06/13 19:56:48;;;;;;;9.38;3.03;;;17.70;68.50;;;;;;3598894;39;20072;-85
2021/06/13 19:59:19;;;;;;;9.55;3.28;;;17.70;69.00;;;;;;3597726;39;20126;-86
2021/06/13 20:01:53;;;;;;;11.20;2.85;;;17.70;69.10;;;;;;3604233;39;20068;-88
2021/06/13 20:04:22;;;;;;;10.50;2.88;;;17.80;69.20;;;;;;3606632;39;20059;-86
2021/06/13 20:06:54;;;;;;;11.65;3.20;;;17.70;68.90;;;;;;3598861;39;20410;-86
2021/06/13 20:09:27;;;;;;;12.38;3.20;;;17.70;69.50;;;;;;3607766;39;20083;-85
2021/06/13 20:11:57;;;;;;;12.30;3.47;;;17.90;69.40;;;;;;3578055;40;20188;-85
2021/06/13 20:14:31;;;;;;;9.82;3.17;;;18.00;69.00;;;;;;3577557;40;20077;-88
2021/06/13 20:17:04;;;;;;;14.85;3.40;;;18.20;68.90;;;;;;3583860;40;20084;-88
2021/06/13 20:19:32;;;;;;;12.30;3.55;;;18.20;69.10;;;;;;3576562;40;20108;-86
2021/06/13 20:22:01;;;;;;;9.68;3.45;;;18.20;69.20;;;;;;3582984;40;20057;-89
2021/06/13 20:24:36;;;;;;;7.45;3.45;;;18.10;69.60;;;;;;3567291;40;20072;-86
2021/06/13 20:27:08;;;;;;;15.40;4.43;;;17.80;70.40;;;;;;3584121;40;20339;-88
2021/06/13 20:29:47;;;;;;;11.95;4.18;;;17.70;71.40;;;;;;3579430;40;20097;-85
2021/06/13 20:32:25;;;;;;;10.38;3.67;;;17.70;71.80;;;;;;3576135;40;20487;-86
2021/06/13 20:34:57;;;;;;;9.27;3.85;;;17.80;71.90;;;;;;3589043;40;20104;-88
2021/06/13 20:37:30;;;;;;;10.40;4.07;;;17.70;72.50;;;;;;3575118;40;20028;-86
2021/06/13 20:39:58;;;;;;;;;;;17.70;73.00;;;;;;3590516;40;20036;-86
2021/06/13 20:42:28;;;;;;;8.95;4.38;;;17.70;73.00;;;;;;3576797;40;19965;-87
2021/06/13 20:45:00;;;;;;;9.48;4.15;;;17.60;73.30;;;;;;3575266;40;20439;-88
2021/06/13 20:47:28;;;;;;;10.00;3.58;;;17.60;73.90;;;;;;3575369;40;20084;-88
2021/06/13 20:49:56;;;;;;;;;;;17.60;74.10;;;;;;3584935;40;20075;-86
2021/06/13 20:52:27;;;;;;;12.37;3.53;;;17.40;75.30;;;;;;3562867;40;19973;-84
2021/06/13 20:54:55;;;;;;;9.43;3.75;;;17.50;74.60;;;;;;3550738;40;20101;-85
2021/06/13 20:57:25;;;;;;;11.18;4.20;;;17.30;75.30;;;;;;3542519;40;20078;-85
2021/06/13 20:59:59;;;;;;;10.02;3.92;;;17.40;75.50;;;;;;3544468;40;20098;-89
2021/06/13 21:02:28;;;;;;;12.20;4.43;;;17.30;75.90;;;;;;3555525;40;20086;-87
2021/06/13 21:04:57;;;;;;;13.15;6.53;;;17.20;77.00;;;;;;3537774;40;20074;-87
2021/06/13 21:07:25;;;;;;;15.93;4.82;;;17.10;77.70;;;;;;3552648;40;20101;-85
2021/06/13 21:09:54;;;;;;;13.52;3.72;;;17.20;78.00;;;;;;3556156;40;20103;-89
2021/06/13 21:12:22;;;;;;;10.23;4.03;;;17.30;77.30;;;;;;3551790;40;20038;-88
2021/06/13 21:14:50;;;;;;;10.07;4.40;;;17.30;77.50;;;;;;3561984;40;20058;-85
2021/06/13 21:17:21;;;;;;;8.97;3.70;;;17.20;78.60;;;;;;3550404;40;20063;-85
2021/06/13 21:19:49;;;;;;;13.02;3.92;;;17.10;79.40;;;;;;3539139;40;20074;-89
2021/06/13 21:22:16;;;;;;;11.13;4.20;;;16.80;80.90;;;;;;3547233;40;20066;-86
2021/06/13 21:24:46;;;;;;;12.60;4.53;;;16.80;81.80;;;;;;3557545;40;20075;-86
2021/06/13 21:27:14;;;;;;;9.45;4.10;;;16.90;81.40;;;;;;3579888;40;20061;-92
2021/06/13 21:38:46;;;;;;;12.85;4.43;;;16.40;86.30;;;;;;3685543;22;20088;-93
2021/06/13 21:41:20;;;;;;;10.85;4.38;;;16.30;88.10;;;;;;3593443;40;20028;-90
2021/06/13 21:46:55;;;;;;;10.50;4.55;;;16.10;90.50;;;;;;3658203;22;20028;-90
2021/06/13 21:49:51;;;;;;;12.75;4.45;;;16.20;91.00;;;;;;1603561;22;21230;-88
2021/06/13 21:55:13;;;;;;;8.10;3.97;;;16.10;92.00;;;;;;3621263;39;20401;-88
2021/06/13 21:57:41;;;;;;;12.43;4.70;;;15.90;93.20;;;;;;3603140;40;20580;-87
2021/06/13 22:00:21;;;;;;;10.93;5.18;;;15.80;94.10;;;;;;3638741;22;20079;-91
2021/06/13 22:03:23;;;;;;;12.05;4.70;;;15.80;95.00;;;;;;3665830;22;20043;-87
2021/06/13 22:06:00;;;;;;;10.95;4.40;;;15.70;95.70;;;;;;3750619;22;20095;-88
2021/06/13 22:08:53;;;;;;;15.38;5.13;;;15.80;95.80;;;;;;3694997;22;20033;-91
